• Join FlightAware (Why Join?)
  • Login
  • US Flag 
10:26AM EDT


 

Airport Tracker/Info


-or-


 

Live Flight TrackerFlight Track Log ✈ UPS2332 ✈ 30-Jan-2014 ✈ KSDF - KMIA

Flight Track Log - Related Links

Times and Time Zones

All times are in EST time to prevent confusion due to time zone crossing. See the UPS2332 flight status page for this flight to view local times or setup timezone preferences in your user account.

Time Position Orientation Groundspeed Altitude Reporting Facility
EST Latitude Longitude Course Direction KTS MPH feet Rate Location/Type
05:17PM 38.1120 -85.7318 181° South 200 230 4,200  Level FlightAware ADS-B (KBRY)
05:18PM 38.0758 -85.7737 222° Southwest 228 262 6,900 2,940 Climbing FlightAware ADS-B (KBRY)
05:19PM 38.0758 -85.8560 270° West 230 265 10,100 2,520 Climbing FlightAware ADS-B (KBRY)
05:20PM 38.0718 -85.9441 267° West 295 339 11,900 2,700 Climbing FlightAware ADS-B (KBRY)
05:21PM 38.0204 -86.0374 235° Southwest 317 365 15,500 3,420 Climbing FlightAware ADS-B (KBRY)
05:22PM 37.9709 -86.1204 233° Southwest 331 381 18,800 3,060 Climbing FlightAware ADS-B (KBRY)
05:23PM 37.9075 -86.2192 231° Southwest 364 419 21,600 2,340 Climbing FlightAware ADS-B (KBRY)
05:24PM 37.8020 -86.2539 195° South 421 484 23,600 1,860 Climbing FlightAware ADS-B (KBRY)
05:25PM 37.6868 -86.2781 189° South 447 514 25,300 1,980 Climbing FlightAware ADS-B (KBRY)
05:26PM 37.5968 -86.2976 190° South 470 541 27,000 2,040 Climbing FlightAware ADS-B (KBRY)
05:28PM 37.2795 -86.3441 187° South 512 589 31,700 1,920 Climbing FlightAware ADS-B (KBRY)
05:29PM 37.1175 -86.2884 165° South 520 598 33,800 1,320 Climbing FlightAware ADS-B (KBRY)
05:31PM 36.8800 -86.2005 164° South 515 593 36,000 720 Climbing FlightAware ADS-B (KBRY)
05:32PM 36.7198 -86.1526 167° South 515 593 36,000  Level FlightAware ADS-B (KBRY)
05:33PM 36.6175 -86.1222 167° South 511 588 36,000  Level Indianapolis Center
05:34PM 36.4767 -86.0783 166° South 511 588 36,000  Level Indianapolis Center
05:35PM 36.3356 -86.0342 166° South 513 590 36,000  Level Indianapolis Center
05:36PM 36.2389 -86.0042 166° South 516 594 36,000 300 Level Memphis Center
05:37PM 36.0961 -85.9606 166° South 518 596 36,600 480 Climbing Memphis Center
05:38PM 35.9536 -85.9169 166° South 519 597 37,000 180 Climbing Memphis Center
05:39PM 35.8103 -85.8733 166° South 522 601 37,000  Level Memphis Center
05:40PM 35.6458 -85.8231 166° South 525 604 37,000  Level Memphis Center
05:41PM 35.5039 -85.7792 166° South 527 606 37,000  Level Memphis Center
05:42PM 35.3611 -85.7375 167° South 528 608 37,000  Level Memphis Center
05:43PM 35.2178 -85.6944 166° South 530 610 37,000  Level Memphis Center
05:44PM 35.0747 -85.6511 166° South 531 611 37,000  Level Memphis Center
05:45PM 34.9031 -85.6014 167° South 527 606 37,000  Level Atlanta Center
05:46PM 34.7617 -85.5608 167° South 527 606 37,000  Level Atlanta Center
05:47PM 34.6264 -85.5231 167° South 527 606 37,000  Level Atlanta Center
05:48PM 34.4953 -85.4831 166° South 507 583 37,000  Level Atlanta Center
05:49PM 34.3664 -85.4431 166° South 479 551 37,000  Level Atlanta Center
05:50PM 34.2231 -85.4031 167° South 479 551 37,000  Level Atlanta Center
05:51PM 34.0897 -85.3633 166° South 479 551 37,000  Level Atlanta Center
05:52PM 33.9503 -85.3261 168° South 497 572 37,000  Level Atlanta Center
05:53PM 33.8150 -85.2864 166° South 507 583 37,000  Level Atlanta Center
05:54PM 33.6756 -85.2469 167° South 507 583 37,000  Level Atlanta Center
05:55PM 33.5403 -85.2053 166° South 507 583 37,000  Level Atlanta Center
05:56PM 33.4092 -85.1686 167° South 497 572 37,000  Level Atlanta Center
05:57PM 33.2781 -85.1322 167° South 491 565 37,000  Level Atlanta Center
05:58PM 33.1511 -85.0933 166° South 481 554 37,000  Level Atlanta Center
05:59PM 33.0219 -85.0569 167° South 481 554 37,000  Level Atlanta Center
06:00PM 32.8969 -85.0233 167° South 469 540 37,000  Level Atlanta Center
06:01PM 32.7700 -84.9800 164° South 469 540 37,000  Level Atlanta Center
06:02PM 32.6450 -84.9442 166° South 466 536 37,000  Level Atlanta Center
06:03PM 32.5178 -84.9108 168° South 471 542 37,000  Level Atlanta Center
06:04PM 32.3886 -84.8753 167° South 471 542 37,000  Level Atlanta Center
06:05PM 32.2617 -84.8372 166° South 476 548 37,000  Level Atlanta Center
06:06PM 32.1303 -84.8089 170° South 471 542 37,000  Level Atlanta Center
06:08PM 31.9503 -84.7533 165° South 477 549 37,000  Level Jacksonville Center
06:09PM 31.8192 -84.7214 168° South 477 549 37,000  Level Jacksonville Center
06:14PM 31.0984 -84.4874 168° South 473 544 37,000  Level FlightAware ADS-B (KTLH)
06:15PM 30.9675 -84.4106 153° Southeast 473 544 37,000  Level FlightAware ADS-B (KTLH)
06:16PM 30.9014 -84.3725 154° Southeast 471 542 37,000  Level FlightAware ADS-B (KTLH)
06:17PM 30.8173 -84.3244 154° Southeast 470 541 37,000  Level FlightAware ADS-B (KTLH)
06:18PM 30.6731 -84.2428 154° Southeast 470 541 37,000  Level FlightAware ADS-B (KTLH)
06:19PM 30.5785 -84.1892 154° Southeast 469 540 37,000  Level FlightAware ADS-B (KTLH)
06:19PM 30.4681 -84.1266 154° Southeast 467 537 37,000  Level FlightAware ADS-B (KTLH)
06:20PM 30.3665 -84.0691 154° Southeast 466 536 37,000  Level FlightAware ADS-B (KTLH)
06:21PM 30.2640 -84.0114 154° Southeast 464 534 37,000  Level FlightAware ADS-B (KTLH)
06:22PM 30.1902 -83.9700 154° Southeast 463 533 37,000  Level FlightAware ADS-B (KTLH)
06:25PM 29.8705 -83.7908 154° Southeast 450 518 37,000  Level FlightAware ADS-B (KTLH)
06:26PM 29.7856 -83.7444 154° Southeast 458 527 37,000  Level Jacksonville Center
06:27PM 29.6711 -83.6839 155° Southeast 458 527 37,000  Level Jacksonville Center
06:28PM 29.5589 -83.6208 154° Southeast 458 527 37,000  Level Jacksonville Center
06:29PM 29.4444 -83.5578 154° Southeast 458 527 37,000  Level Jacksonville Center
06:30PM 29.3422 -83.5000 154° Southeast 458 527 37,000  Level Jacksonville Center
06:35PM 28.6485 -83.1181 154° Southeast 460 529 37,000  Level FlightAware ADS-B (KMCO)
06:38PM 28.3648 -82.9645 155° Southeast 460 529 37,000  Level FlightAware ADS-B (KMCO)
06:39PM 28.2506 -82.9029 155° Southeast 461 531 37,000  Level FlightAware ADS-B (KMCO)
06:41PM 27.9481 -82.7426 155° Southeast 459 528 37,000  Level FlightAware ADS-B (KMCO)
06:43PM 27.7678 -82.6728 161° South 455 524 37,000  Level FlightAware ADS-B (KMCO)
06:44PM 27.6923 -82.6446 162° South 455 524 37,000  Level FlightAware ADS-B (KMCO)
06:44PM 27.6080 -82.6130 162° South 456 525 37,000  Level FlightAware ADS-B (KMCO)
06:46PM 27.4109 -82.5395 162° South 457 526 37,000  Level FlightAware ADS-B (KMCO)
06:48PM 27.2081 -82.4633 162° South 461 531 37,000  Level FlightAware ADS-B (KMCO)
06:48PM 27.1312 -82.4189 153° Southeast 486 559 37,000  Level FlightAware ADS-B (KMCO)
06:49PM 27.0678 -82.3591 140° Southeast 502 578 37,000 -480 Level FlightAware ADS-B (KMCO)
06:50PM 26.9873 -82.2744 137° Southeast 491 565 36,400 -1,500 Descending FlightAware ADS-B (KMCO)
06:50PM 26.9221 -82.2058 137° Southeast 490 564 34,900 -2,100 Descending FlightAware ADS-B (KMCO)
06:51PM 26.8214 -82.1004 137° Southeast 478 550 32,900 -1,860 Descending FlightAware ADS-B (KMCO)
06:52PM 26.7575 -82.0340 137° Southeast 479 551 31,800 -1,620 Descending FlightAware ADS-B (KMCO)
06:53PM 26.6924 -81.9670 137° Southeast 480 552 30,800 -1,500 Descending FlightAware ADS-B (KMCO)
06:53PM 26.6287 -81.9010 137° Southeast 481 554 29,800 -2,340 Descending FlightAware ADS-B (KMCO)
06:54PM 26.5645 -81.8293 135° Southeast 497 572 27,700 -2,940 Descending FlightAware ADS-B (KMCO)
06:55PM 26.5072 -81.7517 130° Southeast 488 562 25,900 -2,160 Descending FlightAware ADS-B (KMCO)
06:55PM 26.4739 -81.7069 130° Southeast 479 551 25,200 -2,460 Descending Miami Center
06:56PM 26.3919 -81.5992 130° Southeast 473 544 22,200 -2,760 Descending Miami Center
06:57PM 26.3117 -81.4986 132° Southeast 455 524 19,700 -2,460 Descending Miami Center
06:58PM 26.2522 -81.3922 122° Southeast 423 487 17,300 -2,220 Descending Miami Center
06:59PM 26.2394 -81.2642 96° East 398 458 15,300 -1,920 Descending Miami Center
07:00PM 26.2033 -81.1494 109° East 398 458 13,500 -2,280 Descending Miami Center
07:01PM 26.1028 -81.0858 150° Southeast 374 430 10,800 -1,800 Descending Miami Center
07:02PM 26.0144 -81.0342 152° Southeast 374 430 10,000 -720 Descending Miami Center
07:02PM 26.0019 -81.0314 169° South 348 400 10,000 -120 Level Miami Center
07:03PM 25.9444 -80.9969 152° Southeast 345 397 9,900  Descending Miami Center
07:03PM 25.9239 -80.9894 162° South 271 312 10,000 -240 Climbing Miami Center
07:04PM 25.8850 -80.9558 142° Southeast 294 338 9,700 -600 Descending Miami Center
07:04PM 25.8775 -80.9347 112° Southeast 251 289 9,400 -1,200 Descending Miami Center
07:05PM 25.8642 -80.8811 105° East 236 272 8,500 -1,200 Descending Miami Center
07:05PM 25.8564 -80.8669 121° Southeast 248 285 8,300 -1,020 Descending Miami Center
07:06PM 25.8333 -80.7878 108° East 246 283 7,300 -840 Descending Miami Center
07:07PM 25.8200 -80.7436 109° East 236 272 6,700 -900 Descending Miami Center
07:07PM 25.8036 -80.7292 142° Southeast 190 219 6,400 -1,140 Descending Miami Center
07:08PM 25.7875 -80.7033 125° Southeast 208 239 5,600 -1,320 Descending Miami Center
07:08PM 25.7819 -80.6822 106° East 201 231 5,100 -1,320 Descending Miami Center
07:09PM 25.7869 -80.6411 82° East 187 215 4,300 -1,200 Descending Miami Center
07:09PM 25.7856 -80.6203 94° East 203 234 3,900 -840 Descending Miami Center
07:10PM 25.7908 -80.5789 82° East 187 215 3,500 -660 Descending Miami Center
07:11PM 25.7872 -80.5533 99° East 193 222 3,200 -420 Descending Miami Center
07:12PM 25.7906 -80.5050 86° East 173 199 3,000 -420 Descending Miami Center
07:13PM 25.7919 -80.4497 88° East 176 203 2,500 -720 Descending Miami Center
07:14PM 25.7953 -80.3919 86° East 162 186 1,500 -840 Descending Miami Center
07:15PM 25.7964 -80.3553 88° East 124 143 800 -720 Descending Miami Center
07:16PM 25.7994 -80.3092 86° East 137 158 200 -600 Descending Miami Center
07:18PM 25.7954 -80.2901 24° Northeast  Level Estimated